Elmdale, KS (66850)

9:08 PM CDT on July 30, 2014 (GMT -0500)
RAWS TALLGRASS PRAIRIE KS US (MTGSK1) Elev 1230 ft | 38.44 °N, 96.56 °W | Change Station

Current weather conditions updated 38 minutes ago

Clear
Clear
70 °F
Feels Like 70 °F
N
1
Wind Variable Wind from SSE
Gusts 4.0 mph

Tomorrow is forecast to be Much Warmer than today.

Today
High -- | Low -- °F
--% Chance of Precip.
Yesterday
High -- | Low -- °F
Precip. -- in
6:27 AM 8:38 PM
Waxing Crescent, 15% visible
Pressure 30.08 in
Visibility 10.0 miles
Clouds Clear
Dew Point 62 °F
Humidity 77%
Rainfall 0.24 in
Snow Depth Not available.
UV 0 out of 12
Pollen 5.00 out of 12
Air Quality Not available.
Flu Activity Not available.
METAR KEMP 310153Z AUTO 00000KT 10SM CLR 19/17 A3009 RMK AO2 SLP186 T01940167

More Conditions Fewer Conditions

Pressure 30.08 in
Visibility 10.0 miles
Clouds Clear
Dew Point 62 °F
Humidity 77%
Rainfall 0.24 in
Snow Depth Not available.
UV 0 out of 12
Pollen 5.00 out of 12
Air Quality Not available.
Flu Activity Not available.
METAR KEMP 310153Z AUTO 00000KT 10SM CLR 19/17 A3009 RMK AO2 SLP186 T01940167

More Conditions Fewer Conditions

10-Day Weather Forecast

Almanac

Astronomy

Jul. 30, 2014 Rise Set
Actual Time 6:27 AM CDT 8:38 PM CDT
Civil Twilight 5:57 AM CDT 9:08 PM CDT
Nautical Twilight 5:21 AM CDT 9:44 PM CDT
Astronomical Twilight 4:41 AM CDT 10:23 PM CDT
Moon 9:56 AM CDT (7/30) 10:25 PM CDT (7/30)
Length of Visible Light 15h 10m
Length of Day
14h 11m
Tomorrow will be 1m 49s shorter.
Waxing Crescent, 15% of the Moon is Illuminated
Today
Waxing Crescent
Aug 3
First Quarter
Aug 10
Full
Aug 17
Last Quarter
Aug 25
New

Today's Extremes

State Highs State Lows

Community

WunderPhotos

Upload Photos

1,739,267 photos uploaded!

Nearby

Snow Depth

Station Depth Elevation
No new snow has been reported.

Earthquake Activity

City Distance Mag. Time & Date
Caldwell, Kansas 105 miles 3.4 5:57 AM CDT
2014-07-26
Helena, Oklahoma 146 miles 3.3 11:56 PM CDT
2014-07-24
Minimum magnitude displayed is 2.5.

Coastal Water Temperatures

Place Temperature
No Stations Reporting

Nearby Weather Stations

Station Location Temp. Dew Point Humidity Wind Precip. Elev Updated Type
RAWS TALLGRASS PRAIRIE KS, Strong City, KS 70 °F 62 °F 77% SSE  at  1 mph 0.00 in / hr 1230 ft 8:30 PM CDT MADIS
Marion County Lake, Marion, KS 69.4 °F 59 °F 70% SE  at  0.0 mph 0.00 in / hr 1362 ft 9:08 PM CDT Rapid Fire

Show More Stations Show Fewer Stations